Terminal Aerodrome Forecast
Issued by NWS Wakefield, VA

Home | Current Version | Previous Version | Text Only | Print | Product List | Glossary On
Versions: 1 2 3 4 5 6 7 8 9 10 11 12 13 14 15 16 17
000
FTUS41 KAKQ 231745
TAFRIC
TAF
KRIC 231745Z 2318/2418 01008KT P6SM VCSH OVC050
     FM231900 03004KT 4SM -SHRA BR BKN035 OVC050
     FM240000 02005KT P6SM VCSH BKN060
     FM240600 01005KT P6SM BKN035=

USA.gov is the U.S. government's official web portal to all federal, state and local government web resources and services.